South Amboy, New Jersey
Current Conditions -  °F | °C
As of 7:15 AM on Wednesday 28 Jan 2015 (Local Time) from KLDJ Reporting Station
Broken Clouds Broken Clouds  
Wind Chill: -12°   Ceiling: 10000
Heat Index: -6°   Visibility: 10mi
Dew Point: -16°   Wind: 10mph
Humidity: 44%   Direction: 340°NNW
Pressure: 30.03"   Gusts: NA
Location:  40.48°N, 74.28°W
Report Text: KLDJ 281215Z AUTO 34009KT 10SM BKN100 M05/M16 A3003 RMK AO2 T10551161
Loading
Personal Weather Stations






























Interactive Weather Map New forecast layout! Learn more

10-Day Weather Forecast

Advertisements
Track Severe Weather on mobile